• Join FlightAware (Why Join?)
  • Login
  • US Flag 
01:09PM EDT


 

Airport Tracker/Info


-or-


 

Live Flight TrackerFlight Track Log ✈ SKW4754 ✈ 22-Jul-2013 ✈ KMEM - KDEN

Flight Track Log - Related Links

Times and Time Zones

All times are in EDT time to prevent confusion due to time zone crossing. See the SKW4754 flight status page for this flight to view local times or setup timezone preferences in your user account.

Time Position Orientation Groundspeed Altitude Reporting Facility
EDT Latitude Longitude Course Direction KTS MPH feet Rate Location/Type
11:23AM 35.0667 -89.9833 279° West 177 204 1,000  Level KMEM
11:24AM 35.1167 -89.9833 360° North 211 243 3,300 2,280 Climbing KMEM
11:25AM 35.1500 -90.0500 301° West 254 292 5,600 2,580 Climbing KMEM
11:26AM 35.1500 -90.1333 270° West 255 293 8,300 2,460 Climbing KMEM
11:27AM 35.1247 -90.4843 283° West  Level FlightAware Approximate
11:27AM 35.1617 -90.1944 283° West 282 325 9,500  Level Memphis Center
11:28AM 35.1494 -90.6133 283° West  Level FlightAware Approximate
11:28AM 35.1658 -90.2833 273° West 282 325 11,300  Level Memphis Center
11:29AM 35.1598 -90.7449 279° West  Level FlightAware Approximate
11:29AM 35.1681 -90.3900 271° West 303 349 13,300  Level Memphis Center
11:30AM 35.1742 -90.5019 274° West 328 377 15,100 1,920 Climbing Memphis Center
11:31AM 35.2011 -90.6111 287° West 333 383 17,200 1,800 Climbing Memphis Center
11:32AM 35.2383 -90.7206 293° West 347 399 18,700 1,440 Climbing Memphis Center
11:33AM 35.2694 -90.8225 291° West 353 406 20,100 1,380 Climbing Memphis Center
11:34AM 35.3086 -90.9372 293° West 358 412 21,500 1,440 Climbing Memphis Center
11:35AM 35.3475 -91.0544 292° West 368 423 23,000 1,260 Climbing Memphis Center
11:36AM 35.3906 -91.1822 292° West 368 423 24,100 1,020 Climbing Memphis Center
11:37AM 35.4272 -91.2947 292° West 375 432 25,100 960 Climbing Memphis Center
11:38AM 35.4700 -91.4328 291° West 396 456 26,100 960 Climbing Memphis Center
11:39AM 35.5147 -91.5636 293° West 396 456 27,100 1,020 Climbing Memphis Center
11:40AM 35.5550 -91.6917 291° West 401 461 28,200 1,020 Climbing Memphis Center
11:41AM 35.5953 -91.8275 290° West 414 476 29,200 960 Climbing Memphis Center
11:42AM 35.6208 -91.9608 283° West 414 476 30,200 960 Climbing Memphis Center
11:43AM 35.6522 -92.1019 285° West 414 476 31,200 960 Climbing Memphis Center
11:44AM 35.6817 -92.2381 285° West 414 476 32,200 960 Climbing Memphis Center
11:45AM 35.7128 -92.3744 286° West 414 476 33,200 900 Climbing Memphis Center
11:46AM 35.7586 -92.5083 293° West 419 482 34,100 660 Climbing Memphis Center
11:47AM 35.8000 -92.6425 291° West 424 488 34,600 480 Climbing Memphis Center
11:48AM 35.8433 -92.7794 291° West 424 488 35,100 540 Climbing Memphis Center
11:49AM 35.8825 -92.9036 291° West 432 497 35,700 420 Climbing Memphis Center
11:50AM 35.9275 -93.0433 292° West 432 497 36,000 120 Climbing Memphis Center
11:51AM 35.9722 -93.1886 291° West 437 503 36,000  Level Memphis Center
11:52AM 36.0189 -93.3339 292° West 448 516 36,000 480 Level Memphis Center
11:53AM 36.0611 -93.4792 290° West 453 521 37,000 960 Climbing Memphis Center
11:54AM 36.0700 -93.6283 274° West 439 505 38,000 480 Climbing Memphis Center
11:55AM 36.0828 -93.7753 276° West 439 505 38,000  Level Memphis Center
11:56AM 36.0911 -93.9247 274° West 439 505 38,000  Level Memphis Center
11:57AM 36.0992 -94.0714 274° West 439 505 38,000  Level Memphis Center
11:58AM 36.1050 -94.2233 273° West 439 505 38,000  Level Memphis Center
11:59AM 36.1086 -94.3700 272° West 444 511 38,000  Level Memphis Center
12:00PM 36.1206 -94.5194 276° West 444 511 38,000  Level Memphis Center
12:00PM 36.1547 -94.6200 293° West 426 490 38,000  Level Kansas City Center
12:01PM 36.2006 -94.7561 293° West 427 491 38,000  Level Kansas City Center
12:02PM 36.2461 -94.8931 292° West 429 494 38,000  Level Kansas City Center
12:03PM 36.2914 -95.0303 292° West 429 494 38,000  Level Kansas City Center
12:05PM 36.3397 -95.1778 292° West 422 486 38,000  Level Kansas City Center
12:06PM 36.3842 -95.3136 292° West 423 487 38,000  Level Kansas City Center
12:07PM 36.4283 -95.4506 292° West 426 490 38,000  Level Kansas City Center
12:08PM 36.4836 -95.6153 293° West 429 494 38,000  Level Kansas City Center
12:09PM 36.5314 -95.7606 292° West 435 501 38,000  Level Kansas City Center
12:10PM 36.5750 -95.8961 292° West 426 490 38,000  Level Kansas City Center
12:11PM 36.6197 -96.0342 292° West 428 493 38,000  Level Kansas City Center
12:12PM 36.6639 -96.1722 292° West 428 493 38,000  Level Kansas City Center
12:13PM 36.7078 -96.3094 292° West 429 494 38,000  Level Kansas City Center
12:14PM 36.7600 -96.4747 292° West 427 491 38,000  Level Kansas City Center
12:15PM 36.8033 -96.6119 292° West 425 489 38,000  Level Kansas City Center
12:16PM 36.8464 -96.7486 292° West 425 489 38,000  Level Kansas City Center
12:17PM 36.8864 -96.8781 291° West 427 491 38,000  Level Kansas City Center
12:18PM 36.9297 -97.0164 291° West 427 491 38,000  Level Kansas City Center
12:19PM 36.9800 -97.1842 291° West 428 493 38,000  Level Kansas City Center
12:20PM 37.0219 -97.3250 290° West 430 495 38,000  Level Kansas City Center
12:21PM 37.0653 -97.4617 292° West 426 490 38,000  Level Kansas City Center
12:22PM 37.1064 -97.5997 291° West 422 486 38,000  Level Kansas City Center
12:23PM 37.1483 -97.7353 291° West 419 482 38,000  Level Kansas City Center
12:24PM 37.1892 -97.8750 290° West 423 487 38,000  Level Kansas City Center
12:25PM 37.2311 -98.0133 291° West 421 484 38,000  Level Kansas City Center
12:26PM 37.2803 -98.1794 290° West 422 486 38,000  Level Kansas City Center
12:27PM 37.3214 -98.3189 290° West 423 487 38,000  Level Kansas City Center
12:28PM 37.3622 -98.4575 290° West 422 486 38,000  Level Kansas City Center
12:29PM 37.4028 -98.5953 290° West 420 483 38,000  Level Kansas City Center
12:30PM 37.4422 -98.7344 290° West 420 483 38,000  Level Kansas City Center
12:31PM 37.4828 -98.8733 290° West 421 484 38,000  Level Kansas City Center
12:32PM 37.5228 -99.0108 290° West 419 482 38,000  Level Kansas City Center
12:33PM 37.5628 -99.1511 290° West 422 486 38,000  Level Kansas City Center
12:34PM 37.6314 -99.3067 299° West 421 484 38,000  Level Kansas City Center
12:36PM 37.6919 -99.4342 301° West 423 487 38,000  Level Kansas City Center
12:37PM 37.7528 -99.5606 301° West 424 488 38,000  Level Kansas City Center
12:38PM 37.8211 -99.7022 301° West 423 487 38,000  Level Kansas City Center
12:39PM 37.8794 -99.8231 301° West 423 487 38,000  Level Kansas City Center
12:40PM 37.9469 -99.9631 301° West 420 483 38,000  Level Kansas City Center
12:41PM 38.0061 -100.0842 302° West 421 484 38,000  Level Kansas City Center
12:42PM 38.0578 -100.2350 294° West 425 489 38,000  Level Kansas City Center
12:43PM 38.0928 -100.3700 288° West 421 484 38,000  Level Kansas City Center
12:44PM 38.1347 -100.5283 289° West 424 488 38,000  Level Kansas City Center
12:45PM 38.1708 -100.6628 289° West 423 487 38,000  Level Kansas City Center
12:46PM 38.2122 -100.8189 289° West 422 486 38,000  Level Kansas City Center
12:47PM 38.2483 -100.9544 289° West 422 486 38,000  Level Kansas City Center
12:48PM 38.2894 -101.1108 289° West 421 484 38,000  Level Kansas City Center
12:49PM 38.3250 -101.2478 288° West 424 488 38,000  Level Kansas City Center
12:50PM 38.3664 -101.4044 289° West 420 483 38,000  Level Kansas City Center
12:51PM 38.4011 -101.5417 288° West 424 488 38,000 -420 Level Kansas City Center
12:52PM 38.4417 -101.6997 288° West 422 486 37,200 -900 Descending Kansas City Center
12:53PM 38.4889 -101.8775 289° West 419 482 36,000 -960 Descending Denver Center
12:54PM 38.5233 -102.0139 288° West 421 484 35,000 -1,020 Descending Denver Center
12:55PM 38.5642 -102.1756 288° West 428 493 33,900 -1,020 Descending Denver Center
12:56PM 38.6197 -102.3036 299° West 433 498 32,900 -960 Descending Denver Center
12:58PM 38.6925 -102.4528 302° West 443 510 32,000 -480 Descending Denver Center
12:59PM 38.7542 -102.5781 302° West 437 503 32,000  Level Denver Center
01:00PM 38.8244 -102.7233 302° West 431 496 32,000  Level Denver Center
01:01PM 38.8908 -102.8653 301° West 433 498 32,000 -300 Level Denver Center
01:02PM 38.9558 -102.9969 302° West 437 503 31,400 -780 Descending Denver Center
01:03PM 39.0122 -103.1183 301° West 399 459 30,400 -1,200 Descending Denver Center
01:04PM 39.0692 -103.2381 302° West 393 452 29,000 -1,500 Descending Denver Center
01:05PM 39.1250 -103.3550 302° West 387 445 27,400 -1,800 Descending Denver Center
01:06PM 39.1808 -103.4719 302° West 383 441 25,400 -2,400 Descending Denver Center
01:07PM 39.2453 -103.6103 301° West 377 434 22,500 -2,520 Descending Denver Center
01:08PM 39.2997 -103.7267 301° West 379 436 20,200 -1,740 Descending Denver Center
01:09PM 39.3494 -103.8375 300° West 365 420 19,000 -1,260 Descending Denver Center
01:10PM 39.3953 -103.9433 299° West 327 376 17,700 -1,260 Descending Denver Center
01:11PM 39.4022 -104.0650 274° West 310 357 16,400 -1,140 Descending Denver Center
01:12PM 39.4075 -104.1669 274° West 285 328 15,400 -1,320 Descending Denver Center
01:13PM 39.4122 -104.2753 273° West 281 323 13,700 -1,200 Descending Denver Center
01:14PM 39.4358 -104.3719 288° West 279 321 13,000 -840 Descending Denver Center
01:15PM 39.4614 -104.4617 290° West 270 311 12,000 -1,200 Descending Denver Center
01:16PM 39.4869 -104.5592 289° West 266 306 10,600 -1,200 Descending Denver Center
01:17PM 39.5497 -104.6006 333° Northwest 249 287 9,600 -720 Descending Denver Center
01:18PM 39.6033 -104.6281 338° Northwest 196 226 9,200 -420 Descending Denver Center
01:19PM 39.6533 -104.6431 347° North 189 217 8,800 -420 Descending Denver Center